createdAt,value
2022-11-24T00:00:30.952Z,98667.03
2022-11-24T00:03:18.740Z,98663.09
2022-11-24T00:06:08.355Z,98671.16
2022-11-24T00:08:56.682Z,98666.19
2022-11-24T00:11:44.270Z,98669.59
2022-11-24T00:14:32.067Z,98672.19
2022-11-24T00:17:20.968Z,98682.84
2022-11-24T00:20:10.369Z,98690.88
2022-11-24T00:22:57.728Z,98692.91
2022-11-24T00:25:44.943Z,98689.31
2022-11-24T00:28:33.467Z,98693.72
2022-11-24T00:31:24.463Z,98691.91
2022-11-24T00:34:15.544Z,98696.06
2022-11-24T00:37:03.280Z,98694.03
2022-11-24T00:39:50.820Z,98695.09
2022-11-24T00:42:38.154Z,98701.63
2022-11-24T00:45:25.699Z,98697.97
2022-11-24T00:48:13.030Z,98706.56
2022-11-24T00:51:04.278Z,98704.53
2022-11-24T00:53:53.209Z,98713.94
2022-11-24T00:56:40.733Z,98718.97
2022-11-24T00:59:27.977Z,98711.19
2022-11-24T01:02:15.469Z,98725.50
2022-11-24T01:05:03.352Z,98728.66
2022-11-24T01:07:52.076Z,98734.34
2022-11-24T01:10:39.982Z,98737.69
2022-11-24T01:13:27.343Z,98739.53
2022-11-24T01:16:17.310Z,98739.22
2022-11-24T01:19:04.855Z,98758.22
2022-11-24T01:21:52.355Z,98748.28
2022-11-24T01:24:41.453Z,98748.28
2022-11-24T01:27:29.247Z,98753.75
2022-11-24T01:30:16.442Z,98748.78
2022-11-24T01:33:03.813Z,98759.66
2022-11-24T01:35:51.008Z,98757.03
2022-11-24T01:38:38.407Z,98768.38
2022-11-24T01:41:27.849Z,98768.06
2022-11-24T01:44:25.310Z,98778.19
2022-11-24T01:47:32.950Z,98782.78
2022-11-24T01:50:20.672Z,98776.25
2022-11-24T01:53:07.977Z,98783.25
2022-11-24T01:55:55.836Z,98783.00
2022-11-24T01:58:47.028Z,98779.63
2022-11-24T02:01:34.560Z,98786.88
2022-11-24T02:04:29.861Z,98796.97
2022-11-24T02:07:17.732Z,98787.84
2022-11-24T02:10:11.010Z,98792.81
2022-11-24T02:13:00.640Z,98791.47
2022-11-24T02:15:49.796Z,98788.31
2022-11-24T02:18:39.567Z,98788.31
2022-11-24T02:21:26.972Z,98783.13
2022-11-24T02:24:23.211Z,98782.34
2022-11-24T02:27:12.931Z,98774.25
2022-11-24T02:30:00.768Z,98777.31
2022-11-24T02:32:48.464Z,98783.31
2022-11-24T02:35:36.008Z,98786.63
2022-11-24T02:38:32.362Z,98787.59
2022-11-24T02:41:23.021Z,98779.69
2022-11-24T02:44:15.053Z,98793.72
2022-11-24T02:47:08.268Z,98792.69
2022-11-24T02:49:55.782Z,98789.63
2022-11-24T02:52:43.387Z,98797.97
2022-11-24T02:55:30.988Z,98797.97
2022-11-24T02:58:18.154Z,98802.69
2022-11-24T03:01:07.223Z,98799.06
2022-11-24T03:03:54.859Z,98790.75
2022-11-24T03:06:43.353Z,98789.75
2022-11-24T03:09:31.911Z,98800.47
2022-11-24T03:12:19.203Z,98806.19
2022-11-24T03:15:07.831Z,98800.47
2022-11-24T03:17:57.795Z,98809.78
2022-11-24T03:20:45.525Z,98806.31
2022-11-24T03:23:32.752Z,98814.59
2022-11-24T03:26:22.683Z,98823.34
2022-11-24T03:29:10.422Z,98821.22
2022-11-24T03:31:58.689Z,98816.50
2022-11-24T03:34:47.315Z,98818.00
2022-11-24T03:37:35.182Z,98812.78
2022-11-24T03:40:22.526Z,98818.28
2022-11-24T03:43:09.730Z,98817.91
2022-11-24T03:45:57.595Z,98801.59
2022-11-24T03:48:44.912Z,98806.94
2022-11-24T03:51:33.870Z,98798.97
2022-11-24T03:54:22.004Z,98805.81
2022-11-24T03:57:09.494Z,98808.22
2022-11-24T03:59:56.791Z,98812.41
2022-11-24T04:02:44.272Z,98807.22
2022-11-24T04:05:33.220Z,98818.00
2022-11-24T04:08:22.049Z,98822.34
2022-11-24T04:11:29.366Z,98822.03
2022-11-24T04:14:15.804Z,98818.91
2022-11-24T04:17:05.520Z,98815.50
2022-11-24T04:19:53.117Z,98818.09
2022-11-24T04:22:41.110Z,98815.81
2022-11-24T04:25:30.426Z,98820.53
2022-11-24T04:28:17.775Z,98823.44
2022-11-24T04:31:06.759Z,98826.88
2022-11-24T04:33:54.265Z,98834.75
2022-11-24T04:36:41.916Z,98839.72
2022-11-24T04:39:29.340Z,98839.97
2022-11-24T04:42:19.126Z,98837.38
2022-11-24T04:45:09.072Z,98845.94
2022-11-24T04:47:56.276Z,98843.41
2022-11-24T04:50:43.688Z,98848.38
2022-11-24T04:53:31.192Z,98846.06
2022-11-24T04:56:18.573Z,98852.63
2022-11-24T04:59:08.679Z,98858.34
2022-11-24T05:01:56.412Z,98863.31
2022-11-24T05:04:43.868Z,98862.78
2022-11-24T05:07:31.212Z,98869.00
2022-11-24T05:10:37.244Z,98876.03
2022-11-24T05:13:24.501Z,98880.41
2022-11-24T05:16:40.832Z,98884.81
2022-11-24T05:19:32.383Z,98888.47
2022-11-24T05:22:20.347Z,98897.28
2022-11-24T05:25:08.236Z,98888.16
2022-11-24T05:27:55.863Z,98884.28
2022-11-24T05:30:43.365Z,98884.34
2022-11-24T05:33:33.755Z,98888.03
2022-11-24T05:36:38.617Z,98886.78
2022-11-24T05:39:25.899Z,98899.00
2022-11-24T05:42:48.119Z,98906.25
2022-11-24T05:45:36.074Z,98910.34
2022-11-24T05:48:23.665Z,98922.81
2022-11-24T05:51:12.460Z,98919.19
2022-11-24T05:53:59.666Z,98926.97
2022-11-24T05:56:46.948Z,98920.75
2022-11-24T05:59:35.034Z,98929.34
2022-11-24T06:02:22.575Z,98928.78
2022-11-24T06:05:10.731Z,98929.59
2022-11-24T06:08:01.508Z,98914.78
2022-11-24T06:10:48.959Z,98917.63
2022-11-24T06:13:36.686Z,98929.59
2022-11-24T06:16:24.748Z,98925.41
2022-11-24T06:19:12.687Z,98923.91
2022-11-24T06:22:00.123Z,98920.28
2022-11-24T06:24:50.835Z,98920.59
2022-11-24T06:27:38.096Z,98931.75
2022-11-24T06:30:25.460Z,98923.72
2022-11-24T06:33:12.840Z,98927.59
2022-11-24T06:36:03.657Z,98938.47
2022-11-24T06:38:51.889Z,98946.28
2022-11-24T06:41:41.081Z,98942.63
2022-11-24T06:44:29.262Z,98951.47
2022-11-24T06:47:17.254Z,98953.03
2022-11-24T06:50:05.925Z,98948.88
2022-11-24T06:52:56.082Z,98950.84
2022-11-24T06:55:45.170Z,98954.63
2022-11-24T06:58:35.355Z,98956.38
2022-11-24T07:01:25.939Z,98965.22
2022-11-24T07:03:56.527Z,98963.66
2022-11-24T07:06:28.403Z,98965.22
2022-11-24T07:08:57.490Z,98967.72
2022-11-24T07:11:26.528Z,98975.44
2022-11-24T07:14:00.272Z,98980.66
2022-11-24T07:16:30.273Z,98991.50
2022-11-24T07:18:59.935Z,98991.50
2022-11-24T07:21:30.643Z,98992.78
2022-11-24T07:24:00.100Z,98995.91
2022-11-24T07:26:29.295Z,98995.91
2022-11-24T07:28:59.655Z,98996.72
2022-11-24T07:31:28.653Z,99000.88
2022-11-24T07:33:58.245Z,99006.63
2022-11-24T07:36:27.447Z,99009.81
2022-11-24T07:38:56.444Z,99005.06
2022-11-24T07:41:25.579Z,99005.06
2022-11-24T07:43:54.565Z,99012.41
2022-11-24T07:46:25.104Z,99015.00
2022-11-24T07:48:54.224Z,99026.97
2022-11-24T07:51:23.239Z,99020.97
2022-11-24T07:53:52.312Z,99028.22
2022-11-24T07:56:21.404Z,99024.03
2022-11-24T07:58:53.024Z,99041.00
2022-11-24T08:01:22.530Z,99045.94
2022-11-24T08:03:53.122Z,99042.56
2022-11-24T08:06:25.462Z,99054.53
2022-11-24T08:09:07.675Z,99048.22
2022-11-24T08:11:36.786Z,99051.38
2022-11-24T08:14:06.107Z,99057.06
2022-11-24T08:16:35.301Z,99059.06
2022-11-24T08:19:05.795Z,99062.72
2022-11-24T08:21:34.890Z,99065.31
2022-11-24T08:24:03.928Z,99059.78
2022-11-24T08:26:33.058Z,99060.81
2022-11-24T08:29:02.087Z,99064.44
2022-11-24T08:31:34.258Z,99064.91
2022-11-24T08:34:06.703Z,99074.50
2022-11-24T08:36:36.111Z,99072.94
2022-11-24T08:39:05.547Z,99069.75
2022-11-24T08:41:34.576Z,99072.34
2022-11-24T08:44:03.623Z,99073.69
2022-11-24T08:46:32.676Z,99070.97
2022-11-24T08:49:01.839Z,99069.47
2022-11-24T08:51:32.231Z,99083.03
2022-11-24T08:54:03.023Z,99076.88
2022-11-24T08:56:34.545Z,99083.97
2022-11-24T08:59:04.362Z,99080.63
2022-11-24T09:01:33.838Z,99094.72
2022-11-24T09:04:03.020Z,99115.81
2022-11-24T09:06:33.558Z,99116.63
2022-11-24T09:09:02.590Z,99119.22
2022-11-24T09:11:32.146Z,99113.00
2022-11-24T09:14:01.257Z,99121.34
2022-11-24T09:16:31.056Z,99121.34
2022-11-24T09:19:02.459Z,99117.72
2022-11-24T09:21:34.426Z,99110.31
2022-11-24T09:24:04.903Z,99110.19
2022-11-24T09:26:41.889Z,99105.41
2022-11-24T09:29:16.378Z,99111.44
2022-11-24T09:31:45.505Z,99102.31
2022-11-24T09:34:16.835Z,99112.66
2022-11-24T09:36:48.108Z,99115.22
2022-11-24T09:39:20.180Z,99115.59
2022-11-24T09:42:11.410Z,99127.09
2022-11-24T09:45:13.991Z,99140.63
2022-11-24T09:47:59.690Z,99140.66
2022-11-24T09:50:38.962Z,99151.28
2022-11-24T09:53:24.754Z,99146.47
2022-11-24T09:56:03.402Z,99136.56
2022-11-24T09:58:50.681Z,99142.88
2022-11-24T10:01:24.475Z,99145.78
2022-11-24T10:04:06.456Z,99153.34
2022-11-24T10:11:11.030Z,99161.25
2022-11-24T10:19:01.623Z,99168.94
2022-11-24T10:22:04.743Z,99166.25
2022-11-24T10:25:29.411Z,99164.34
2022-11-24T10:28:04.307Z,99166.22
2022-11-24T10:31:16.608Z,99157.56
2022-11-24T10:33:55.430Z,99163.38
2022-11-24T10:36:34.172Z,99156.84
2022-11-24T10:39:27.895Z,99162.59
2022-11-24T10:43:13.347Z,99164.03
2022-11-24T10:50:44.696Z,99159.13
2022-11-24T10:53:23.662Z,99164.84
2022-11-24T10:56:04.970Z,99167.69
2022-11-24T10:58:56.176Z,99164.78
2022-11-24T11:02:44.299Z,99172.06
2022-11-24T11:06:20.935Z,99167.78
2022-11-24T11:09:26.859Z,99170.28
2022-11-24T11:12:44.612Z,99169.94
2022-11-24T11:15:47.129Z,99167.56
2022-11-24T11:18:38.407Z,99170.16
2022-11-24T11:21:35.799Z,99173.78
2022-11-24T11:24:24.713Z,99188.41
2022-11-24T11:27:24.200Z,99165.44
2022-11-24T11:36:40.151Z,99173.47
2022-11-24T11:39:25.244Z,99180.31
2022-11-24T11:42:37.958Z,99191.28
2022-11-24T11:45:43.193Z,99193.00
2022-11-24T11:48:43.729Z,99201.53
2022-11-24T11:51:37.851Z,99204.34
2022-11-24T11:54:30.988Z,99206.44
2022-11-24T11:57:35.090Z,99209.75
2022-11-24T12:00:13.260Z,99212.31
2022-11-24T12:04:02.194Z,99216.09
2022-11-24T12:06:57.329Z,99214.19
2022-11-24T12:09:50.756Z,99223.50
2022-11-24T12:13:20.712Z,99218.78
2022-11-24T12:15:56.127Z,99223.63
2022-11-24T12:18:57.254Z,99215.38
2022-11-24T12:21:37.304Z,99219.34
2022-11-24T12:24:41.501Z,99221.72
2022-11-24T12:27:23.583Z,99232.41
2022-11-24T12:30:09.977Z,99226.41
2022-11-24T12:33:23.430Z,99224.31
2022-11-24T12:36:08.544Z,99232.44
2022-11-24T12:38:58.315Z,99224.09
2022-11-24T12:41:54.109Z,99232.75
2022-11-24T12:44:42.417Z,99228.25
2022-11-24T12:47:20.859Z,99230.31
2022-11-24T12:50:04.804Z,99231.59
2022-11-24T12:52:39.699Z,99233.66
2022-11-24T12:55:18.843Z,99244.06
2022-11-24T12:57:59.915Z,99243.53
2022-11-24T13:00:43.513Z,99243.28
2022-11-24T13:03:31.717Z,99244.81
2022-11-24T13:06:09.457Z,99244.81
2022-11-24T13:08:38.839Z,99238.78
2022-11-24T13:11:48.926Z,99249.94
2022-11-24T13:14:22.015Z,99244.97
2022-11-24T13:19:47.550Z,99242.72
2022-11-24T13:22:27.211Z,99239.59
2022-11-24T13:25:24.122Z,99242.63
2022-11-24T13:27:57.908Z,99239.50
2022-11-24T13:31:10.051Z,99243.56
2022-11-24T13:34:00.116Z,99256.81
2022-11-24T13:36:51.819Z,99249.72
2022-11-24T13:39:23.142Z,99263.78
2022-11-24T13:42:42.107Z,99255.19
2022-11-24T13:45:10.178Z,99257.78
2022-11-24T13:47:47.043Z,99267.44
2022-11-24T13:50:25.562Z,99267.13
2022-11-24T13:53:11.669Z,99268.09
2022-11-24T13:56:24.365Z,99270.97
2022-11-24T13:59:17.331Z,99269.38
2022-11-24T14:02:40.415Z,99258.94
2022-11-24T14:05:25.825Z,99259.91
2022-11-24T14:07:58.318Z,99260.41
2022-11-24T14:10:43.465Z,99259.59
2022-11-24T14:13:34.767Z,99259.31
2022-11-24T14:16:19.178Z,99258.22
2022-11-24T14:19:27.963Z,99264.69
2022-11-24T14:22:08.613Z,99258.72
2022-11-24T14:25:02.479Z,99268.09
2022-11-24T14:27:36.080Z,99263.59
2022-11-24T14:30:20.317Z,99255.41
2022-11-24T14:33:11.711Z,99246.94
2022-11-24T14:35:55.998Z,99257.19
2022-11-24T14:38:25.266Z,99256.81
2022-11-24T14:40:56.352Z,99260.66
2022-11-24T14:43:32.933Z,99258.00
2022-11-24T14:46:14.985Z,99262.91
2022-11-24T14:48:54.044Z,99268.63
2022-11-24T14:51:34.153Z,99268.84
2022-11-24T14:57:47.210Z,99272.41
2022-11-24T15:00:47.723Z,99280.75
2022-11-24T15:03:25.306Z,99277.44
2022-11-24T15:06:33.363Z,99285.00
2022-11-24T15:09:39.492Z,99286.59
2022-11-24T15:12:31.007Z,99288.09
2022-11-24T15:15:04.193Z,99294.34
2022-11-24T15:17:54.586Z,99289.59
2022-11-24T15:20:29.706Z,99289.84
2022-11-24T15:23:24.425Z,99285.91
2022-11-24T15:25:55.894Z,99298.13
2022-11-24T15:28:29.945Z,99297.81
2022-11-24T15:31:03.582Z,99309.03
2022-11-24T15:33:35.712Z,99306.66
2022-11-24T15:36:05.951Z,99303.28
2022-11-24T15:38:35.958Z,99304.59
2022-11-24T15:41:21.468Z,99307.78
2022-11-24T15:43:58.783Z,99312.50
2022-11-24T15:46:29.017Z,99307.38
2022-11-24T15:48:58.831Z,99311.06
2022-11-24T15:51:29.193Z,99310.03
2022-11-24T15:54:01.313Z,99307.69
2022-11-24T15:56:37.920Z,99305.56
2022-11-24T15:59:07.722Z,99311.53
2022-11-24T16:01:37.623Z,99318.34
2022-11-24T16:04:07.825Z,99320.97
2022-11-24T16:06:37.731Z,99321.72
2022-11-24T16:09:08.762Z,99320.16
2022-11-24T16:11:40.412Z,99336.03
2022-11-24T16:14:10.006Z,99339.69
2022-11-24T16:16:42.636Z,99345.34
2022-11-24T16:19:12.964Z,99348.44
2022-11-24T16:21:43.049Z,99349.47
2022-11-24T16:24:13.150Z,99345.50
2022-11-24T16:26:45.642Z,99356.06
2022-11-24T16:29:17.403Z,99352.13
2022-11-24T16:31:48.883Z,99344.22
2022-11-24T16:34:18.802Z,99343.47
2022-11-24T16:36:48.982Z,99344.69
2022-11-24T16:39:19.255Z,99351.16
2022-11-24T16:41:51.318Z,99349.59
2022-11-24T16:44:24.988Z,99359.22
2022-11-24T16:47:02.701Z,99354.47
2022-11-24T16:49:36.023Z,99353.38
2022-11-24T16:52:06.357Z,99350.69
2022-11-24T16:54:36.200Z,99353.41
2022-11-24T16:57:11.770Z,99349.41
2022-11-24T16:59:46.067Z,99356.31
2022-11-24T17:02:16.589Z,99361.44
2022-11-24T17:04:46.487Z,99368.59
2022-11-24T17:07:16.734Z,99360.56
2022-11-24T17:09:46.785Z,99354.91
2022-11-24T17:12:17.857Z,99363.41
2022-11-24T17:15:03.391Z,99364.31
2022-11-24T17:17:37.668Z,99366.38
2022-11-24T17:20:09.977Z,99354.38
2022-11-24T17:22:39.467Z,99356.97
2022-11-24T17:25:10.109Z,99352.56
2022-11-24T17:27:41.027Z,99355.97
2022-11-24T17:30:12.187Z,99361.97
2022-11-24T17:32:41.695Z,99362.97
2022-11-24T17:35:11.936Z,99368.41
2022-11-24T17:37:41.369Z,99366.84
2022-11-24T17:40:27.905Z,99375.09
2022-11-24T17:43:01.712Z,99368.22
2022-11-24T17:45:31.768Z,99368.66
2022-11-24T17:48:01.770Z,99367.53
2022-11-24T17:50:31.388Z,99364.63
2022-11-24T17:53:00.938Z,99370.06
2022-11-24T17:55:30.378Z,99375.25
2022-11-24T17:58:01.156Z,99378.09
2022-11-24T18:00:30.795Z,99378.84
2022-11-24T18:03:01.029Z,99380.09
2022-11-24T18:05:30.573Z,99388.13
2022-11-24T18:08:01.770Z,99390.63
2022-11-24T18:10:33.940Z,99393.13
2022-11-24T18:13:04.727Z,99383.16
2022-11-24T18:15:35.439Z,99394.00
2022-11-24T18:18:05.470Z,99394.81
2022-11-24T18:20:35.244Z,99397.41
2022-11-24T18:23:06.112Z,99396.63
2022-11-24T18:25:37.355Z,99389.28
2022-11-24T18:28:08.163Z,99391.53
2022-11-24T18:30:37.926Z,99387.00
2022-11-24T18:33:07.401Z,99394.25
2022-11-24T18:35:39.763Z,99392.34
2022-11-24T18:38:09.842Z,99393.59
2022-11-24T18:40:41.248Z,99384.09
2022-11-24T18:43:15.563Z,99390.19
2022-11-24T18:45:49.332Z,99384.28
2022-11-24T18:48:19.291Z,99383.13
2022-11-24T18:50:55.809Z,99396.78
2022-11-24T18:53:28.146Z,99391.22
2022-11-24T18:56:01.209Z,99398.91
2022-11-24T18:58:34.241Z,99381.28
2022-11-24T19:01:12.029Z,99384.13
2022-11-24T19:03:48.560Z,99386.34
2022-11-24T19:06:21.433Z,99391.97
2022-11-24T19:08:54.289Z,99383.66
2022-11-24T19:11:25.941Z,99381.72
2022-11-24T19:13:57.908Z,99373.44
2022-11-24T19:16:27.900Z,99380.88
2022-11-24T19:19:00.341Z,99369.78
2022-11-24T19:21:32.245Z,99363.03
2022-11-24T19:24:05.293Z,99371.63
2022-11-24T19:26:36.122Z,99377.59
2022-11-24T19:29:08.433Z,99360.31
2022-11-24T19:31:39.730Z,99372.66
2022-11-24T19:34:09.492Z,99367.44
2022-11-24T19:36:40.631Z,99365.88
2022-11-24T19:39:14.978Z,99366.31
2022-11-24T19:41:44.602Z,99367.56
2022-11-24T19:44:15.790Z,99375.34
2022-11-24T19:46:45.563Z,99365.19
2022-11-24T19:49:15.327Z,99373.19
2022-11-24T19:51:44.976Z,99376.00
2022-11-24T19:54:14.832Z,99365.25
2022-11-24T19:56:44.402Z,99370.13
2022-11-24T19:59:16.559Z,99367.16
2022-11-24T20:01:46.242Z,99367.84
2022-11-24T20:04:16.539Z,99375.63
2022-11-24T20:06:47.846Z,99372.66
2022-11-24T20:09:19.465Z,99377.97
2022-11-24T20:11:49.981Z,99369.47
2022-11-24T20:14:22.196Z,99366.13
2022-11-24T20:16:52.212Z,99359.81
2022-11-24T20:19:22.586Z,99355.06
2022-11-24T20:21:55.100Z,99354.72
2022-11-24T20:24:25.173Z,99363.28
2022-11-24T20:26:58.440Z,99366.88
2022-11-24T20:29:30.488Z,99366.34
2022-11-24T20:32:00.069Z,99372.28
2022-11-24T20:34:29.647Z,99379.72
2022-11-24T20:36:59.106Z,99375.53
2022-11-24T20:39:29.745Z,99377.56
2022-11-24T20:41:59.411Z,99381.94
2022-11-24T20:44:30.459Z,99378.59
2022-11-24T20:47:01.414Z,99372.38
2022-11-24T20:49:31.151Z,99374.75
2022-11-24T20:52:00.974Z,99373.16
2022-11-24T20:54:30.676Z,99374.97
2022-11-24T20:57:00.225Z,99384.34
2022-11-24T20:59:31.070Z,99379.56
2022-11-24T21:02:00.594Z,99389.78
2022-11-24T21:04:48.846Z,99384.44
2022-11-24T21:07:36.666Z,99377.91
2022-11-24T21:10:23.980Z,99382.97
2022-11-24T21:13:11.341Z,99384.59
2022-11-24T21:16:00.262Z,99377.47
2022-11-24T21:18:51.081Z,99383.88
2022-11-24T21:21:39.427Z,99381.72
2022-11-24T21:24:26.694Z,99380.56
2022-11-24T21:27:14.122Z,99374.66
2022-11-24T21:30:01.527Z,99382.84
2022-11-24T21:32:50.118Z,99392.66
2022-11-24T21:35:38.443Z,99398.84
2022-11-24T21:38:25.886Z,99401.44
2022-11-24T21:41:14.234Z,99399.47
2022-11-24T21:44:02.057Z,99409.69
2022-11-24T21:46:54.365Z,99416.16
2022-11-24T21:49:44.641Z,99403.66
2022-11-24T21:52:32.155Z,99408.69
2022-11-24T21:55:19.848Z,99404.16
2022-11-24T21:58:07.799Z,99409.53
2022-11-24T22:00:56.320Z,99409.97
2022-11-24T22:03:43.971Z,99406.81
2022-11-24T22:06:33.325Z,99402.59
2022-11-24T22:09:20.895Z,99407.22
2022-11-24T22:12:08.981Z,99407.78
2022-11-24T22:14:56.194Z,99398.22
2022-11-24T22:17:43.616Z,99409.97
2022-11-24T22:20:30.958Z,99401.63
2022-11-24T22:23:19.910Z,99396.88
2022-11-24T22:26:09.702Z,99394.69
2022-11-24T22:28:58.648Z,99396.69
2022-11-24T22:31:45.962Z,99397.69
2022-11-24T22:34:33.591Z,99398.13
2022-11-24T22:37:21.265Z,99398.53
2022-11-24T22:40:11.193Z,99400.78
2022-11-24T22:42:59.612Z,99398.59
2022-11-24T22:45:47.367Z,99402.38
2022-11-24T22:48:34.634Z,99394.03
2022-11-24T22:51:25.077Z,99389.88
2022-11-24T22:54:14.481Z,99387.72
2022-11-24T22:57:03.478Z,99398.25
2022-11-24T22:59:51.068Z,99403.06
2022-11-24T23:02:38.479Z,99397.53
2022-11-24T23:05:25.788Z,99402.09
2022-11-24T23:08:13.143Z,99400.53
2022-11-24T23:11:01.778Z,99408.06
2022-11-24T23:13:53.755Z,99406.25
2022-11-24T23:16:41.575Z,99408.66
2022-11-24T23:19:29.920Z,99405.50
2022-11-24T23:22:17.294Z,99409.88
2022-11-24T23:25:05.119Z,99405.13
2022-11-24T23:27:52.369Z,99406.00
2022-11-24T23:30:41.003Z,99403.22
2022-11-24T23:33:28.440Z,99403.28
2022-11-24T23:36:18.059Z,99406.06
2022-11-24T23:39:08.697Z,99398.88
2022-11-24T23:41:56.027Z,99401.84
2022-11-24T23:44:43.772Z,99404.03
2022-11-24T23:47:32.557Z,99397.50
2022-11-24T23:50:20.156Z,99397.28
2022-11-24T23:53:07.371Z,99399.66
2022-11-24T23:55:55.710Z,99394.50
2022-11-24T23:58:43.193Z,99394.91
